Terminal Aerodrome Forecast
Issued by NWS

Home | Current Version | Previous Version | Text Only | Print | Product List | Glossary On
Versions: 1 2 3 4 5 6 7 8 9 10 11 12 13 14 15 16
000
FTUS45 KPSR 232300
TAFIWA
TAF
KIWA 232320Z 2400/2424 24010G16KT P6SM FEW200
     FM240300 VRB04KT P6SM SCT250
     FM240600 13006KT P6SM SCT250
     FM241900 26006KT P6SM SCT250
      AMD LTD TO CLD VIS AND WIND 2403/2413=

USA.gov is the U.S. government's official web portal to all federal, state and local government web resources and services.